createdAt,value
2016-03-15T00:00:07.386Z,74.15
2016-03-15T00:01:07.342Z,74.09
2016-03-15T00:02:07.281Z,74.52
2016-03-15T00:03:07.253Z,74.52
2016-03-15T00:04:07.161Z,74.52
2016-03-15T00:05:07.087Z,74.81
2016-03-15T00:06:07.042Z,74.9
2016-03-15T00:07:06.988Z,74.71
2016-03-15T00:08:06.912Z,74.62
2016-03-15T00:09:06.852Z,74.81
2016-03-15T00:10:06.777Z,74.43
2016-03-15T00:11:06.748Z,74.81
2016-03-15T00:12:06.689Z,74.43
2016-03-15T00:13:06.629Z,74.62
2016-03-15T00:14:06.569Z,74.62
2016-03-15T00:15:06.524Z,74.05
2016-03-15T00:16:06.434Z,74.52
2016-03-15T00:17:06.390Z,74.52
2016-03-15T00:18:06.315Z,74.66
2016-03-15T00:19:06.301Z,74.24
2016-03-15T00:20:06.226Z,74.09
2016-03-15T00:21:06.119Z,73.9
2016-03-15T00:22:06.106Z,73.96
2016-03-15T00:23:06.015Z,73.86
2016-03-15T00:24:05.955Z,73.9
2016-03-15T00:25:05.896Z,73.86
2016-03-15T00:26:05.851Z,74.24
2016-03-15T00:27:05.760Z,74.05
2016-03-15T00:28:05.716Z,73.77
2016-03-15T00:29:05.656Z,74.24
2016-03-15T00:30:05.644Z,74.62
2016-03-15T00:31:05.522Z,74.52
2016-03-15T00:32:05.508Z,74.81
2016-03-15T00:33:05.511Z,74.52
2016-03-15T00:34:05.373Z,74.9
2016-03-15T00:35:05.329Z,74.71
2016-03-15T00:36:05.223Z,75
2016-03-15T00:37:05.163Z,74.62
2016-03-15T00:38:05.119Z,74.81
2016-03-15T00:39:05.075Z,74.81
2016-03-15T00:40:04.999Z,75.09
2016-03-15T00:41:04.939Z,74.9
2016-03-15T00:42:04.864Z,75.09
2016-03-15T00:43:04.804Z,74.71
2016-03-15T00:44:04.761Z,75
2016-03-15T00:45:04.544Z,74.71
2016-03-15T00:46:04.641Z,74.81
2016-03-15T00:47:04.643Z,75.09
2016-03-15T00:48:04.505Z,75
2016-03-15T00:49:04.460Z,74.9
2016-03-15T00:50:04.433Z,74.81
2016-03-15T00:51:04.358Z,75
2016-03-15T00:52:04.266Z,74.9
2016-03-15T00:53:04.222Z,75.28
2016-03-15T00:54:04.146Z,74.62
2016-03-15T00:55:04.086Z,74.81
2016-03-15T00:56:04.058Z,74.9
2016-03-15T00:57:03.972Z,75.09
2016-03-15T00:58:03.990Z,74.9
2016-03-15T00:59:03.868Z,75.09
2016-03-15T01:00:03.823Z,75.09
2016-03-15T01:01:03.732Z,75.47
2016-03-15T01:02:03.688Z,75.19
2016-03-15T01:03:03.629Z,75.47
2016-03-15T01:04:03.631Z,75.57
2016-03-15T01:05:03.509Z,75.19
2016-03-15T01:06:03.433Z,75.47
2016-03-15T01:07:03.420Z,75.66
2016-03-15T01:08:03.314Z,75.85
2016-03-15T01:09:03.301Z,75.57
2016-03-15T01:10:03.241Z,76.14
2016-03-15T01:11:03.181Z,76.14
2016-03-15T01:12:02.356Z,75.57
2016-03-15T01:13:03.030Z,75.85
2016-03-15T01:14:02.955Z,76.04
2016-03-15T01:15:02.895Z,76.04
2016-03-15T01:16:02.897Z,75.66
2016-03-15T01:17:02.822Z,75.76
2016-03-15T01:18:02.763Z,75.38
2016-03-15T01:19:02.671Z,75.66
2016-03-15T01:20:02.643Z,75.85
2016-03-15T01:21:02.568Z,75.95
2016-03-15T01:22:02.477Z,75.85
2016-03-15T01:23:02.448Z,76.14
2016-03-15T01:24:02.357Z,76.14
2016-03-15T01:25:02.329Z,76.14
2016-03-15T01:26:02.284Z,76.23
2016-03-15T01:27:02.193Z,75.76
2016-03-15T01:28:02.149Z,75.66
2016-03-15T01:29:02.073Z,75.57
2016-03-15T01:30:02.029Z,75.28
2016-03-15T01:31:01.970Z,75.66
2016-03-15T01:32:01.894Z,75.76
2016-03-15T01:33:01.834Z,76.51
2016-03-15T01:34:01.759Z,75.66
2016-03-15T01:35:01.730Z,75.85
2016-03-15T01:36:01.671Z,75.95
2016-03-15T01:37:01.595Z,75.85
2016-03-15T01:38:01.535Z,75.95
2016-03-15T01:39:01.476Z,76.23
2016-03-15T01:40:01.447Z,75.76
2016-03-15T01:41:01.355Z,75.95
2016-03-15T01:42:01.453Z,75.76
2016-03-15T01:43:01.252Z,76.14
2016-03-15T01:44:01.161Z,75.57
2016-03-15T01:45:01.132Z,75.76
2016-03-15T01:46:01.057Z,75.95
2016-03-15T01:47:01.012Z,75.95
2016-03-15T01:48:00.938Z,76.32
2016-03-15T01:49:00.924Z,75.76
2016-03-15T01:50:00.832Z,75.95
2016-03-15T01:51:00.758Z,75.76
2016-03-15T01:52:00.729Z,75.57
2016-03-15T01:53:00.638Z,75.57
2016-03-15T01:54:00.579Z,75.28
2016-03-15T01:55:00.549Z,75.28
2016-03-15T01:56:00.490Z,75.09
2016-03-15T01:57:00.399Z,75.66
2016-03-15T01:58:00.339Z,75.47
2016-03-15T01:59:00.326Z,75.38
2016-03-15T02:00:00.235Z,75.57
2016-03-15T02:01:00.144Z,75.28
2016-03-15T02:02:00.084Z,75.28
2016-03-15T02:03:00.055Z,75.47
2016-03-15T02:03:59.965Z,75.57
2016-03-15T02:04:59.904Z,75.57
2016-03-15T02:05:59.845Z,75.66
2016-03-15T02:06:59.816Z,75.38
2016-03-15T02:07:59.709Z,75.47
2016-03-15T02:08:59.681Z,75.66
2016-03-15T02:09:59.653Z,75.57
2016-03-15T02:10:59.577Z,75.47
2016-03-15T02:11:59.517Z,75.57
2016-03-15T02:12:59.442Z,75.19
2016-03-15T02:13:59.382Z,75.19
2016-03-15T02:14:59.322Z,75.47
2016-03-15T02:15:59.263Z,75.28
2016-03-15T02:16:59.249Z,75.28
2016-03-15T02:17:59.143Z,75
2016-03-15T02:18:59.067Z,74.81
2016-03-15T02:19:59.024Z,75.38
2016-03-15T02:20:58.995Z,75.38
2016-03-15T02:21:58.919Z,75.34
2016-03-15T02:22:58.875Z,75.81
2016-03-15T02:23:58.815Z,75.53
2016-03-15T02:24:58.724Z,75.24
2016-03-15T02:25:58.696Z,75.53
2016-03-15T02:26:58.588Z,75.24
2016-03-15T02:27:58.545Z,75.72
2016-03-15T02:28:58.484Z,75.81
2016-03-15T02:29:58.409Z,75.81
2016-03-15T02:30:58.396Z,75.81
2016-03-15T02:31:58.320Z,75.53
2016-03-15T02:32:58.245Z,75.53
2016-03-15T02:33:58.170Z,75.24
2016-03-15T02:34:58.142Z,75.62
2016-03-15T02:35:58.067Z,75.24
2016-03-15T02:36:58.007Z,75.24
2016-03-15T02:37:57.962Z,75.34
2016-03-15T02:38:57.887Z,75.62
2016-03-15T02:39:57.827Z,75.81
2016-03-15T02:40:57.751Z,75.91
2016-03-15T02:41:57.691Z,75.81
2016-03-15T02:42:57.663Z,75.91
2016-03-15T02:43:57.556Z,76
2016-03-15T02:44:57.543Z,76.1
2016-03-15T02:45:57.469Z,75.91
2016-03-15T02:46:57.408Z,76
2016-03-15T02:47:57.317Z,76.57
2016-03-15T02:48:57.305Z,76.29
2016-03-15T02:49:57.213Z,76.19
2016-03-15T02:50:57.153Z,76.57
2016-03-15T02:51:57.109Z,75.91
2016-03-15T02:52:57.033Z,76
2016-03-15T02:53:56.974Z,76.1
2016-03-15T02:54:56.899Z,76
2016-03-15T02:55:56.855Z,76.29
2016-03-15T02:56:56.794Z,76.67
2016-03-15T02:57:56.719Z,76.76
2016-03-15T02:58:56.659Z,76.48
2016-03-15T02:59:56.599Z,76.86
2016-03-15T03:00:56.555Z,76.86
2016-03-15T03:01:56.495Z,76.86
2016-03-15T03:02:56.451Z,77.04
2016-03-15T03:03:56.359Z,76.76
2016-03-15T03:04:56.331Z,76.38
2016-03-15T03:05:56.303Z,76.95
2016-03-15T03:06:56.196Z,76.38
2016-03-15T03:07:56.152Z,76.29
2016-03-15T03:08:56.062Z,76.38
2016-03-15T03:09:56.001Z,76.19
2016-03-15T03:10:55.942Z,76.67
2016-03-15T03:11:55.897Z,76.57
2016-03-15T03:12:55.822Z,77.04
2016-03-15T03:13:55.794Z,76.57
2016-03-15T03:14:55.733Z,76.76
2016-03-15T03:15:55.642Z,76.57
2016-03-15T03:16:55.597Z,77.04
2016-03-15T03:17:55.538Z,76.95
2016-03-15T03:18:55.463Z,77.14
2016-03-15T03:19:55.418Z,77.23
2016-03-15T03:20:55.344Z,77.33
2016-03-15T03:21:55.300Z,77.04
2016-03-15T03:22:55.208Z,76.67
2016-03-15T03:23:55.164Z,76.57
2016-03-15T03:24:55.089Z,76.1
2016-03-15T03:25:55.060Z,76.19
2016-03-15T03:26:54.985Z,76.57
2016-03-15T03:27:54.924Z,76.19
2016-03-15T03:28:54.849Z,76.19
2016-03-15T03:29:54.821Z,75.91
2016-03-15T03:30:54.777Z,76
2016-03-15T03:31:54.670Z,75.91
2016-03-15T03:32:54.625Z,75.91
2016-03-15T03:33:54.551Z,76.19
2016-03-15T03:34:54.521Z,75.91
2016-03-15T03:35:54.431Z,76.1
2016-03-15T03:36:54.371Z,76.86
2016-03-15T03:37:54.342Z,76.48
2016-03-15T03:38:54.251Z,76.86
2016-03-15T03:39:54.192Z,77.04
2016-03-15T03:40:54.147Z,76.95
2016-03-15T03:41:54.087Z,76.86
2016-03-15T03:42:54.011Z,76.95
2016-03-15T03:43:53.952Z,76.86
2016-03-15T03:44:53.877Z,76.86
2016-03-15T03:45:53.833Z,76.86
2016-03-15T03:46:53.772Z,77.33
2016-03-15T03:47:53.681Z,77.04
2016-03-15T03:48:53.731Z,76.76
2016-03-15T03:49:53.608Z,76.76
2016-03-15T03:50:53.518Z,77.04
2016-03-15T03:51:53.458Z,76.57
2016-03-15T03:52:53.414Z,76.57
2016-03-15T03:53:53.338Z,76.38
2016-03-15T03:54:53.294Z,76.76
2016-03-15T03:55:53.234Z,76.67
2016-03-15T03:56:53.175Z,76.38
2016-03-15T03:57:53.130Z,76.76
2016-03-15T03:58:53.054Z,76.67
2016-03-15T03:59:52.980Z,76.67
2016-03-15T04:00:52.935Z,76.67
2016-03-15T04:01:52.860Z,76.67
2016-03-15T04:02:52.785Z,76.95
2016-03-15T04:03:52.787Z,76.48
2016-03-15T04:04:52.696Z,76.19
2016-03-15T04:05:52.667Z,76.29
2016-03-15T04:06:52.561Z,76.57
2016-03-15T04:07:52.500Z,76.57
2016-03-15T04:08:52.426Z,76
2016-03-15T04:09:52.381Z,76.38
2016-03-15T04:10:52.150Z,76.48
2016-03-15T04:11:52.278Z,76.38
2016-03-15T04:12:52.186Z,76.38
2016-03-15T04:13:52.158Z,76.19
2016-03-15T04:14:52.129Z,76.14
2016-03-15T04:15:52.006Z,76.48
2016-03-15T04:16:51.963Z,76.57
2016-03-15T04:17:51.887Z,76.19
2016-03-15T04:18:51.843Z,76.29
2016-03-15T04:19:51.768Z,76.1
2016-03-15T04:20:51.713Z,76.57
2016-03-15T04:21:51.652Z,76.95
2016-03-15T04:22:51.593Z,76.95
2016-03-15T04:23:51.518Z,77.33
2016-03-15T04:24:51.489Z,77.33
2016-03-15T04:25:51.398Z,77.42
2016-03-15T04:26:51.354Z,77.61
2016-03-15T04:27:51.293Z,77.8
2016-03-15T04:28:51.297Z,77.89
2016-03-15T04:29:51.174Z,77.18
2016-03-15T04:30:51.129Z,77.51
2016-03-15T04:31:51.087Z,77.61
2016-03-15T04:32:50.979Z,77.23
2016-03-15T04:33:50.951Z,77.14
2016-03-15T04:34:50.880Z,76.89
2016-03-15T04:35:50.819Z,77.46
2016-03-15T04:36:50.806Z,76.89
2016-03-15T04:37:50.700Z,77.08
2016-03-15T04:38:50.624Z,76.89
2016-03-15T04:39:50.565Z,76.89
2016-03-15T04:40:50.521Z,76.8
2016-03-15T04:41:50.460Z,76.89
2016-03-15T04:42:50.401Z,76.8
2016-03-15T04:43:50.341Z,77.18
2016-03-15T04:44:50.296Z,76.8
2016-03-15T04:45:50.221Z,76.8
2016-03-15T04:46:50.162Z,76.61
2016-03-15T04:47:50.117Z,76.23
2016-03-15T04:48:50.011Z,76.51
2016-03-15T04:49:49.967Z,76.89
2016-03-15T04:50:49.937Z,77.08
2016-03-15T04:51:49.848Z,76.99
2016-03-15T04:52:49.818Z,76.8
2016-03-15T04:53:49.727Z,76.42
2016-03-15T04:54:49.698Z,77.08
2016-03-15T04:55:49.592Z,76.89
2016-03-15T04:56:49.563Z,76.89
2016-03-15T04:57:49.504Z,76.89
2016-03-15T04:58:49.303Z,76.89
2016-03-15T04:59:49.414Z,76.99
2016-03-15T05:00:49.293Z,76.89
2016-03-15T05:01:49.280Z,76.8
2016-03-15T05:02:49.204Z,76.8
2016-03-15T05:03:49.145Z,76.8
2016-03-15T05:04:49.100Z,76.8
2016-03-15T05:05:49.041Z,76.89
2016-03-15T05:06:48.950Z,76.99
2016-03-15T05:07:48.905Z,76.99
2016-03-15T05:08:48.861Z,76.89
2016-03-15T05:09:48.786Z,76.99
2016-03-15T05:10:48.694Z,76.89
2016-03-15T05:11:48.682Z,76.89
2016-03-15T05:12:48.575Z,76.99
2016-03-15T05:13:48.531Z,76.8
2016-03-15T05:14:48.471Z,76.89
2016-03-15T05:15:48.412Z,76.89
2016-03-15T05:16:48.367Z,76.61
2016-03-15T05:17:48.292Z,76.8
2016-03-15T05:18:47.482Z,76.8
2016-03-15T05:19:48.187Z,76.8
2016-03-15T05:20:48.143Z,76.89
2016-03-15T05:21:48.068Z,77.08
2016-03-15T05:22:48.008Z,76.99
2016-03-15T05:23:47.949Z,77.27
2016-03-15T05:24:47.904Z,77.27
2016-03-15T05:25:47.813Z,77.18
2016-03-15T05:26:47.770Z,77.18
2016-03-15T05:27:47.709Z,77.27
2016-03-15T05:28:47.650Z,76.99
2016-03-15T05:29:47.558Z,76.8
2016-03-15T05:30:47.530Z,76.89
2016-03-15T05:31:47.455Z,76.89
2016-03-15T05:32:47.395Z,76.99
2016-03-15T05:33:47.335Z,76.89
2016-03-15T05:34:47.291Z,76.89
2016-03-15T05:35:47.216Z,77.18
2016-03-15T05:36:47.186Z,77.08
2016-03-15T05:37:47.111Z,77.18
2016-03-15T05:38:47.051Z,77.08
2016-03-15T05:39:47.069Z,77.18
2016-03-15T05:40:46.947Z,77.08
2016-03-15T05:41:46.857Z,76.99
2016-03-15T05:42:46.812Z,77.18
2016-03-15T05:43:46.752Z,77.18
2016-03-15T05:44:46.677Z,76.99
2016-03-15T05:45:46.601Z,76.61
2016-03-15T05:46:46.541Z,76.89
2016-03-15T05:47:46.497Z,76.89
2016-03-15T05:48:45.688Z,77.18
2016-03-15T05:49:46.409Z,76.89
2016-03-15T05:50:46.302Z,77.18
2016-03-15T05:51:46.274Z,77.18
2016-03-15T05:52:46.229Z,76.89
2016-03-15T05:53:46.154Z,77.37
2016-03-15T05:54:46.095Z,77.08
2016-03-15T05:55:46.034Z,76.99
2016-03-15T05:56:45.959Z,77.27
2016-03-15T05:57:45.962Z,76.99
2016-03-15T05:58:45.870Z,76.89
2016-03-15T05:59:45.811Z,77.18
2016-03-15T06:00:45.751Z,77.18
2016-03-15T06:01:45.706Z,76.99
2016-03-15T06:02:45.631Z,76.99
2016-03-15T06:03:45.541Z,76.99
2016-03-15T06:04:45.496Z,76.89
2016-03-15T06:05:45.436Z,77.46
2016-03-15T06:06:45.386Z,77.08
2016-03-15T06:07:45.295Z,76.99
2016-03-15T06:08:45.189Z,77.08
2016-03-15T06:09:45.114Z,76.99
2016-03-15T06:10:45.085Z,77.08
2016-03-15T06:11:44.984Z,77.18
2016-03-15T06:12:44.918Z,77.08
2016-03-15T06:13:44.915Z,76.89
2016-03-15T06:14:44.834Z,76.99
2016-03-15T06:15:44.737Z,76.99
2016-03-15T06:16:44.737Z,77.75
2016-03-15T06:17:44.659Z,77.46
2016-03-15T06:18:44.550Z,77.18
2016-03-15T06:19:44.472Z,77.27
2016-03-15T06:20:44.426Z,77.27
2016-03-15T06:21:44.349Z,77.12
2016-03-15T06:22:44.287Z,77.18
2016-03-15T06:23:44.228Z,76.93
2016-03-15T06:24:44.229Z,77.22
2016-03-15T06:25:44.106Z,76.99
2016-03-15T06:26:44.109Z,77.12
2016-03-15T06:27:44.032Z,76.93
2016-03-15T06:28:43.957Z,77.5
2016-03-15T06:29:43.976Z,77.59
2016-03-15T06:30:43.837Z,77.56
2016-03-15T06:31:43.809Z,77.69
2016-03-15T06:32:43.687Z,77.31
2016-03-15T06:33:43.689Z,77.5
2016-03-15T06:34:43.615Z,77.5
2016-03-15T06:35:43.570Z,77.4
2016-03-15T06:36:43.479Z,77.5
2016-03-15T06:37:43.434Z,77.4
2016-03-15T06:38:43.391Z,77.59
2016-03-15T06:39:43.299Z,77.69
2016-03-15T06:40:43.208Z,77.5
2016-03-15T06:41:43.195Z,77.12
2016-03-15T06:42:43.104Z,77.03
2016-03-15T06:43:43.030Z,77.03
2016-03-15T06:44:42.985Z,77.4
2016-03-15T06:45:42.925Z,77.22
2016-03-15T06:46:42.865Z,77.22
2016-03-15T06:47:42.805Z,77.12
2016-03-15T06:48:42.746Z,77.12
2016-03-15T06:49:42.716Z,77.12
2016-03-15T06:50:42.626Z,77.22
2016-03-15T06:51:42.581Z,77.12
2016-03-15T06:52:42.553Z,77.5
2016-03-15T06:53:42.493Z,77.69
2016-03-15T06:54:42.387Z,77.5
2016-03-15T06:55:42.404Z,77.59
2016-03-15T06:56:42.282Z,77.31
2016-03-15T06:57:42.285Z,77.31
2016-03-15T06:58:42.162Z,77.12
2016-03-15T06:59:42.118Z,76.93
2016-03-15T07:00:42.012Z,76.93
2016-03-15T07:01:42.062Z,77.12
2016-03-15T07:02:41.971Z,77.12
2016-03-15T07:03:41.895Z,77.22
2016-03-15T07:04:41.804Z,77.22
2016-03-15T07:05:41.729Z,77.12
2016-03-15T07:06:41.684Z,77.12
2016-03-15T07:07:41.629Z,77.22
2016-03-15T07:08:41.585Z,77.03
2016-03-15T07:09:41.540Z,77.03
2016-03-15T07:10:41.512Z,77.03
2016-03-15T07:11:41.421Z,76.93
2016-03-15T07:12:41.314Z,77.03
2016-03-15T07:13:41.363Z,76.93
2016-03-15T07:14:41.273Z,76.65
2016-03-15T07:15:41.213Z,77.12
2016-03-15T07:16:41.262Z,77.12
2016-03-15T07:17:41.109Z,77.03
2016-03-15T07:18:41.081Z,76.74
2016-03-15T07:19:40.958Z,77.03
2016-03-15T07:20:40.851Z,77.5
2016-03-15T07:21:40.822Z,77.5
2016-03-15T07:22:40.716Z,77.12
2016-03-15T07:23:40.734Z,77.31
2016-03-15T07:24:40.659Z,77.31
2016-03-15T07:25:40.583Z,76.93
2016-03-15T07:26:40.508Z,77.4
2016-03-15T07:27:40.464Z,77.4
2016-03-15T07:28:40.403Z,77.12
2016-03-15T07:29:40.344Z,77.4
2016-03-15T07:30:40.269Z,77.12
2016-03-15T07:31:40.224Z,77.03
2016-03-15T07:32:40.164Z,77.4
2016-03-15T07:33:40.105Z,77.5
2016-03-15T07:34:40.138Z,77.59
2016-03-15T07:35:40.002Z,77.88
2016-03-15T07:36:39.910Z,77.64
2016-03-15T07:37:39.849Z,77.64
2016-03-15T07:38:39.806Z,77.03
2016-03-15T07:39:39.777Z,77.06
2016-03-15T07:40:39.685Z,77.06
2016-03-15T07:41:39.626Z,77.25
2016-03-15T07:42:39.566Z,77.16
2016-03-15T07:43:39.553Z,76.68
2016-03-15T07:44:39.447Z,77.06
2016-03-15T07:45:39.371Z,77.06
2016-03-15T07:46:39.358Z,77.35
2016-03-15T07:47:39.299Z,77.25
2016-03-15T07:48:39.207Z,76.97
2016-03-15T07:49:39.164Z,77.06
2016-03-15T07:50:39.087Z,77.25
2016-03-15T07:51:39.028Z,77.54
2016-03-15T07:52:39.031Z,77.54
2016-03-15T07:53:38.956Z,77.25
2016-03-15T07:54:38.942Z,77.06
2016-03-15T07:55:38.914Z,77.54
2016-03-15T07:56:38.744Z,77.64
2016-03-15T07:57:38.685Z,76.97
2016-03-15T07:58:38.672Z,77.45
2016-03-15T07:59:38.596Z,77.54
2016-03-15T08:00:38.365Z,77.45
2016-03-15T08:01:38.446Z,77.06
2016-03-15T08:02:38.417Z,77.35
2016-03-15T08:03:38.310Z,77.16
2016-03-15T08:04:38.297Z,77.35
2016-03-15T08:05:38.269Z,77.45
2016-03-15T08:06:38.162Z,77.64
2016-03-15T08:07:38.102Z,77.73
2016-03-15T08:08:38.026Z,77.73
2016-03-15T08:09:37.983Z,77.64
2016-03-15T08:10:37.954Z,77.64
2016-03-15T08:11:37.848Z,77.54
2016-03-15T08:12:37.882Z,77.64
2016-03-15T08:13:37.759Z,77.73
2016-03-15T08:14:37.715Z,77.35
2016-03-15T08:15:37.484Z,77.64
2016-03-15T08:16:37.611Z,77.16
2016-03-15T08:17:37.504Z,77.73
2016-03-15T08:18:37.492Z,77.35
2016-03-15T08:19:37.415Z,77.54
2016-03-15T08:20:37.404Z,77.54
2016-03-15T08:21:37.296Z,77.25
2016-03-15T08:22:37.237Z,77.06
2016-03-15T08:23:37.162Z,77.35
2016-03-15T08:24:37.101Z,77.73
2016-03-15T08:25:37.041Z,76.97
2016-03-15T08:26:37.013Z,77.16
2016-03-15T08:27:36.922Z,77.45
2016-03-15T08:28:36.893Z,77.73
2016-03-15T08:29:36.803Z,78.11
2016-03-15T08:30:36.758Z,78.02
2016-03-15T08:31:36.697Z,78.11
2016-03-15T08:32:36.686Z,77.92
2016-03-15T08:33:36.547Z,78.2
2016-03-15T08:34:36.502Z,78.49
2016-03-15T08:35:36.491Z,78.3
2016-03-15T08:36:36.415Z,78.3
2016-03-15T08:37:36.355Z,79.15
2016-03-15T08:38:36.280Z,79.44
2016-03-15T08:39:36.266Z,79.44
2016-03-15T08:40:36.160Z,79.25
2016-03-15T08:41:36.085Z,79.72
2016-03-15T08:42:36.056Z,80
2016-03-15T08:43:35.980Z,80.38
2016-03-15T08:44:35.905Z,80.86
2016-03-15T08:45:35.860Z,80.19
2016-03-15T08:46:35.801Z,80
2016-03-15T08:47:35.804Z,80
2016-03-15T08:48:35.713Z,80.57
2016-03-15T08:49:35.638Z,80.67
2016-03-15T08:50:35.593Z,80.67
2016-03-15T08:51:35.517Z,80.86
2016-03-15T08:52:35.458Z,81.43
2016-03-15T08:53:35.414Z,80.67
2016-03-15T08:54:35.353Z,80.48
2016-03-15T08:55:35.279Z,80.38
2016-03-15T08:56:35.265Z,80.48
2016-03-15T08:57:35.174Z,80.86
2016-03-15T08:58:35.130Z,80.86
2016-03-15T08:59:35.070Z,80.57
2016-03-15T09:00:35.011Z,81.52
2016-03-15T09:01:34.997Z,81.9
2016-03-15T09:02:34.888Z,81.33
2016-03-15T09:03:34.875Z,80.76
2016-03-15T09:04:34.816Z,80.76
2016-03-15T09:05:34.709Z,81.33
2016-03-15T09:06:34.649Z,80.57
2016-03-15T09:07:34.589Z,80.57
2016-03-15T09:08:34.561Z,80.95
2016-03-15T09:09:34.485Z,81.33
2016-03-15T09:10:34.424Z,81.81
2016-03-15T09:11:34.350Z,81.62
2016-03-15T09:12:34.305Z,81.62
2016-03-15T09:13:34.230Z,82.09
2016-03-15T09:14:34.186Z,81.71
2016-03-15T09:15:34.126Z,82.18
2016-03-15T09:16:34.082Z,81.62
2016-03-15T09:17:33.304Z,81.81
2016-03-15T09:18:33.946Z,82.28
2016-03-15T09:19:33.887Z,82.66
2016-03-15T09:20:33.843Z,82.56
2016-03-15T09:21:33.783Z,82.75
2016-03-15T09:22:33.708Z,82.75
2016-03-15T09:23:33.695Z,82.94
2016-03-15T09:24:33.603Z,82.94
2016-03-15T09:25:33.591Z,82.85
2016-03-15T09:26:33.484Z,83.23
2016-03-15T09:27:33.439Z,83.13
2016-03-15T09:28:33.427Z,83.13
2016-03-15T09:29:33.336Z,83.04
2016-03-15T09:30:33.244Z,82.75
2016-03-15T09:31:33.217Z,83.13
2016-03-15T09:32:33.141Z,83.23
2016-03-15T09:33:33.080Z,83.23
2016-03-15T09:34:33.006Z,83.32
2016-03-15T09:35:32.946Z,83.32
2016-03-15T09:36:32.901Z,83.42
2016-03-15T09:37:32.842Z,83.13
2016-03-15T09:38:32.782Z,83.98
2016-03-15T09:39:32.722Z,83.42
2016-03-15T09:40:32.694Z,83.51
2016-03-15T09:41:32.618Z,83.32
2016-03-15T09:42:32.543Z,83.42
2016-03-15T09:43:32.514Z,83.89
2016-03-15T09:44:32.485Z,83.32
2016-03-15T09:45:32.426Z,84.08
2016-03-15T09:46:32.303Z,84.36
2016-03-15T09:47:32.260Z,84.27
2016-03-15T09:48:32.184Z,84.65
2016-03-15T09:49:32.154Z,84.46
2016-03-15T09:50:32.096Z,84.46
2016-03-15T09:51:32.020Z,84.08
2016-03-15T09:52:32.022Z,84.55
2016-03-15T09:53:31.901Z,84.46
2016-03-15T09:54:31.825Z,84.17
2016-03-15T09:55:31.796Z,84.46
2016-03-15T09:56:31.721Z,85.22
2016-03-15T09:57:31.692Z,85.69
2016-03-15T09:58:31.601Z,85.5
2016-03-15T09:59:31.573Z,85.41
2016-03-15T10:00:31.466Z,85.31
2016-03-15T10:01:31.437Z,85.41
2016-03-15T10:02:31.394Z,85.22
2016-03-15T10:03:31.333Z,85.31
2016-03-15T10:04:31.289Z,85.22
2016-03-15T10:05:31.214Z,85.5
2016-03-15T10:06:31.138Z,85.69
2016-03-15T10:07:31.094Z,85.78
2016-03-15T10:08:31.035Z,85.97
2016-03-15T10:09:30.979Z,85.5
2016-03-15T10:10:30.919Z,85.22
2016-03-15T10:11:30.860Z,85.5
2016-03-15T10:12:30.800Z,85.88
2016-03-15T10:13:30.756Z,86.16
2016-03-15T10:14:30.665Z,85.78
2016-03-15T10:15:30.621Z,85.78
2016-03-15T10:16:30.592Z,85.78
2016-03-15T10:17:30.485Z,86.55
2016-03-15T10:18:30.426Z,85.88
2016-03-15T10:19:30.412Z,85.6
2016-03-15T10:20:30.353Z,85.88
2016-03-15T10:21:30.293Z,85.97
2016-03-15T10:22:30.217Z,85.88
2016-03-15T10:23:30.158Z,85.78
2016-03-15T10:24:30.082Z,85.69
2016-03-15T10:25:30.070Z,85.97
2016-03-15T10:26:30.009Z,85.78
2016-03-15T10:27:29.919Z,85.88
2016-03-15T10:28:29.859Z,85.97
2016-03-15T10:29:29.799Z,85.88
2016-03-15T10:30:29.770Z,85.78
2016-03-15T10:31:29.664Z,85.69
2016-03-15T10:32:29.635Z,85.5
2016-03-15T10:33:29.560Z,85.41
2016-03-15T10:34:29.516Z,85.41
2016-03-15T10:35:29.455Z,85.13
2016-03-15T10:36:29.427Z,85.22
2016-03-15T10:37:29.321Z,85.13
2016-03-15T10:38:29.307Z,85.41
2016-03-15T10:39:29.232Z,85.13
2016-03-15T10:40:29.172Z,84.65
2016-03-15T10:41:29.128Z,84.94
2016-03-15T10:42:29.037Z,84.74
2016-03-15T10:43:28.977Z,84.94
2016-03-15T10:44:28.918Z,84.65
2016-03-15T10:45:28.888Z,84.55
2016-03-15T10:46:28.829Z,84.84
2016-03-15T10:47:28.785Z,84.46
2016-03-15T10:48:28.693Z,84.36
2016-03-15T10:49:28.650Z,84.65
2016-03-15T10:50:28.590Z,84.55
2016-03-15T10:51:28.529Z,85.13
2016-03-15T10:52:28.470Z,85.13
2016-03-15T10:53:28.410Z,85.31
2016-03-15T10:54:28.350Z,85.5
2016-03-15T10:55:28.306Z,85.69
2016-03-15T10:56:28.231Z,85.69
2016-03-15T10:57:28.156Z,85.6
2016-03-15T10:58:28.158Z,85.88
2016-03-15T10:59:28.036Z,85.78
2016-03-15T11:00:27.992Z,86.16
2016-03-15T11:01:27.931Z,85.88
2016-03-15T11:02:27.888Z,85.78
2016-03-15T11:03:27.827Z,85.88
2016-03-15T11:04:27.784Z,85.88
2016-03-15T11:05:27.725Z,85.69
2016-03-15T11:06:27.633Z,86.55
2016-03-15T11:07:27.636Z,85.88
2016-03-15T11:08:27.529Z,86.26
2016-03-15T11:09:27.516Z,85.5
2016-03-15T11:10:27.409Z,86.07
2016-03-15T11:11:27.365Z,86.45
2016-03-15T11:12:27.290Z,86.35
2016-03-15T11:13:27.308Z,86.26
2016-03-15T11:14:27.171Z,86.26
2016-03-15T11:15:27.126Z,86.35
2016-03-15T11:16:27.065Z,86.16
2016-03-15T11:17:27.006Z,86.55
2016-03-15T11:18:26.931Z,85.69
2016-03-15T11:19:26.886Z,85.97
2016-03-15T11:20:26.827Z,85.88
2016-03-15T11:21:26.782Z,86.16
2016-03-15T11:22:26.707Z,85.88
2016-03-15T11:23:26.648Z,85.97
2016-03-15T11:24:26.462Z,85.88
2016-03-15T11:25:26.543Z,85.78
2016-03-15T11:26:26.483Z,86.55
2016-03-15T11:27:26.408Z,85.88
2016-03-15T11:28:26.364Z,85.69
2016-03-15T11:29:26.320Z,85.69
2016-03-15T11:30:26.244Z,85.88
2016-03-15T11:31:26.184Z,85.69
2016-03-15T11:32:26.140Z,85.78
2016-03-15T11:33:26.111Z,85.31
2016-03-15T11:34:26.020Z,85.41
2016-03-15T11:35:25.977Z,85.88
2016-03-15T11:36:25.932Z,86.07
2016-03-15T11:37:25.826Z,85.97
2016-03-15T11:38:25.813Z,86.16
2016-03-15T11:39:25.738Z,85.97
2016-03-15T11:40:25.662Z,86.07
2016-03-15T11:41:25.618Z,85.69
2016-03-15T11:42:25.527Z,85.6
2016-03-15T11:43:25.513Z,85.41
2016-03-15T11:44:25.422Z,85.41
2016-03-15T11:45:25.394Z,85.6
2016-03-15T11:46:25.318Z,85.31
2016-03-15T11:47:25.321Z,85.5
2016-03-15T11:48:25.262Z,85.78
2016-03-15T11:49:25.123Z,85.6
2016-03-15T11:50:25.079Z,85.41
2016-03-15T11:51:25.051Z,85.5
2016-03-15T11:52:24.959Z,85.97
2016-03-15T11:53:24.901Z,85.88
2016-03-15T11:54:24.840Z,85.88
2016-03-15T11:55:24.811Z,86.07
2016-03-15T11:56:24.768Z,86.07
2016-03-15T11:57:24.692Z,86.07
2016-03-15T11:58:24.600Z,85.88
2016-03-15T11:59:24.572Z,85.6
2016-03-15T12:00:24.512Z,85.31
2016-03-15T12:01:24.453Z,85.5
2016-03-15T12:02:24.392Z,85.36
2016-03-15T12:03:24.317Z,85.31
2016-03-15T12:04:24.305Z,86.07
2016-03-15T12:05:24.213Z,85.78
2016-03-15T12:06:24.153Z,85.6
2016-03-15T12:07:24.125Z,85.93
2016-03-15T12:08:24.080Z,85.88
2016-03-15T12:09:23.959Z,86.16
2016-03-15T12:10:23.914Z,85.93
2016-03-15T12:11:23.901Z,86.3
2016-03-15T12:12:23.811Z,86.16
2016-03-15T12:13:23.750Z,85.78
2016-03-15T12:14:23.674Z,86.16
2016-03-15T12:15:23.615Z,85.97
2016-03-15T12:16:23.571Z,85.88
2016-03-15T12:17:23.527Z,86.07
2016-03-15T12:18:23.498Z,86.45
2016-03-15T12:19:23.438Z,85.69
2016-03-15T12:20:23.379Z,85.88
2016-03-15T12:21:23.303Z,85.97
2016-03-15T12:22:23.071Z,85.5
2016-03-15T12:23:23.184Z,85.74
2016-03-15T12:24:23.139Z,85.78
2016-03-15T12:25:23.049Z,85.78
2016-03-15T12:26:23.020Z,86.07
2016-03-15T12:27:22.975Z,86.02
2016-03-15T12:28:22.854Z,85.55
2016-03-15T12:29:22.825Z,85.93
2016-03-15T12:30:22.780Z,85.74
2016-03-15T12:31:22.674Z,85.74
2016-03-15T12:32:22.661Z,86.02
2016-03-15T12:33:22.586Z,85.55
2016-03-15T12:34:22.588Z,85.74
2016-03-15T12:35:22.528Z,85.88
2016-03-15T12:36:22.453Z,85.88
2016-03-15T12:37:22.361Z,85.88
2016-03-15T12:38:22.271Z,86.07
2016-03-15T12:39:22.258Z,85.64
2016-03-15T12:40:22.166Z,85.64
2016-03-15T12:41:22.139Z,86.11
2016-03-15T12:42:22.047Z,86.07
2016-03-15T12:43:22.034Z,85.88
2016-03-15T12:44:21.991Z,85.69
2016-03-15T12:45:21.883Z,85.69
2016-03-15T12:46:21.838Z,85.69
2016-03-15T12:47:21.780Z,85.6
2016-03-15T12:48:21.719Z,85.31
2016-03-15T12:49:21.644Z,85.41
2016-03-15T12:50:21.600Z,85.36
2016-03-15T12:51:21.540Z,85.64
2016-03-15T12:52:21.496Z,85.64
2016-03-15T12:53:21.420Z,85.5
2016-03-15T12:54:21.360Z,85.69
2016-03-15T12:55:21.300Z,85.78